createdAt,value
2022-09-17T00:01:31.183Z,19.67
2022-09-17T00:04:04.606Z,19.77
2022-09-17T00:06:35.658Z,19.40
2022-09-17T00:09:05.600Z,19.84
2022-09-17T00:11:36.190Z,20.13
2022-09-17T00:14:05.127Z,20.07
2022-09-17T00:16:37.563Z,19.77
2022-09-17T00:19:06.667Z,19.96
2022-09-17T00:21:33.543Z,19.51
2022-09-17T00:24:05.335Z,19.88
2022-09-17T00:26:33.482Z,19.56
2022-09-17T00:29:01.231Z,19.61
2022-09-17T00:31:29.719Z,20.00
2022-09-17T00:33:58.590Z,19.47
2022-09-17T00:36:25.768Z,19.52
2022-09-17T00:38:56.243Z,19.82
2022-09-17T00:41:27.570Z,19.94
2022-09-17T00:44:01.563Z,19.83
2022-09-17T00:46:42.541Z,19.71
2022-09-17T00:49:22.721Z,19.31
2022-09-17T00:52:10.025Z,19.88
2022-09-17T00:54:45.059Z,19.55
2022-09-17T00:57:12.423Z,19.48
2022-09-17T00:59:39.423Z,19.42
2022-09-17T01:02:06.620Z,19.93
2022-09-17T01:04:33.692Z,19.22
2022-09-17T01:07:28.412Z,20.08
2022-09-17T01:10:36.235Z,20.13
2022-09-17T01:13:31.778Z,20.26
2022-09-17T01:17:01.766Z,20.25
2022-09-17T01:20:25.609Z,20.03
2022-09-17T01:23:41.595Z,19.57
2022-09-17T01:26:17.428Z,19.55
2022-09-17T01:29:25.994Z,19.75
2022-09-17T01:32:25.339Z,19.83
2022-09-17T01:35:12.265Z,19.89
2022-09-17T01:38:12.327Z,19.80
2022-09-17T01:40:55.971Z,19.29
2022-09-17T01:43:34.874Z,19.75
2022-09-17T01:46:15.053Z,19.83
2022-09-17T01:48:47.416Z,19.70
2022-09-17T01:51:26.855Z,19.40
2022-09-17T01:54:03.436Z,19.58
2022-09-17T01:57:04.621Z,20.00
2022-09-17T01:59:41.820Z,19.93
2022-09-17T02:02:49.033Z,19.48
2022-09-17T02:05:31.090Z,19.42
2022-09-17T02:08:15.149Z,19.45
2022-09-17T02:11:06.984Z,18.62
2022-09-17T02:14:12.860Z,18.74
2022-09-17T02:16:50.373Z,18.14
2022-09-17T02:19:35.602Z,18.92
2022-09-17T02:22:14.239Z,19.20
2022-09-17T02:25:05.393Z,19.41
2022-09-17T02:27:54.969Z,18.57
2022-09-17T02:30:21.886Z,18.75
2022-09-17T02:32:49.023Z,18.31
2022-09-17T02:35:16.557Z,18.74
2022-09-17T02:37:44.607Z,19.12
2022-09-17T02:40:14.952Z,19.45
2022-09-17T02:43:22.910Z,19.40
2022-09-17T02:46:20.355Z,19.24
2022-09-17T02:49:35.022Z,19.53
2022-09-17T02:52:34.658Z,19.50
2022-09-17T02:56:03.480Z,19.71
2022-09-17T02:58:53.661Z,19.37
2022-09-17T03:01:35.014Z,19.09
2022-09-17T03:04:05.078Z,18.13
2022-09-17T03:06:32.324Z,18.73
2022-09-17T03:08:59.229Z,19.01
2022-09-17T03:11:26.172Z,18.98
2022-09-17T03:13:53.126Z,19.44
2022-09-17T03:16:20.054Z,19.43
2022-09-17T03:18:46.977Z,19.31
2022-09-17T03:21:14.379Z,18.88
2022-09-17T03:23:41.306Z,17.62
2022-09-17T03:26:08.273Z,18.31
2022-09-17T03:28:35.191Z,18.96
2022-09-17T03:31:02.134Z,18.66
2022-09-17T03:33:29.074Z,18.82
2022-09-17T03:35:55.930Z,19.25
2022-09-17T03:38:22.923Z,19.05
2022-09-17T03:41:07.538Z,19.33
2022-09-17T03:43:34.963Z,19.38
2022-09-17T03:46:01.933Z,19.12
2022-09-17T03:48:29.629Z,18.38
2022-09-17T03:50:56.848Z,18.70
2022-09-17T03:53:23.960Z,18.91
2022-09-17T03:55:51.028Z,18.89
2022-09-17T03:58:17.921Z,19.00
2022-09-17T04:00:44.968Z,18.88
2022-09-17T04:03:12.216Z,18.28
2022-09-17T04:05:39.117Z,18.68
2022-09-17T04:08:05.994Z,19.04
2022-09-17T04:10:33.024Z,19.17
2022-09-17T04:12:59.911Z,19.02
2022-09-17T04:15:26.866Z,18.86
2022-09-17T04:17:58.027Z,19.26
2022-09-17T04:20:26.092Z,18.86
2022-09-17T04:22:53.856Z,18.89
2022-09-17T04:25:20.791Z,18.37
2022-09-17T04:27:48.684Z,17.40
2022-09-17T04:30:15.788Z,18.39
2022-09-17T04:32:45.164Z,18.37
2022-09-17T04:35:13.119Z,18.42
2022-09-17T04:37:40.389Z,18.39
2022-09-17T04:40:08.480Z,18.01
2022-09-17T04:42:35.468Z,18.80
2022-09-17T04:45:02.345Z,18.27
2022-09-17T04:47:29.289Z,18.42
2022-09-17T04:49:56.172Z,18.20
2022-09-17T04:52:24.814Z,18.57
2022-09-17T04:54:54.546Z,18.36
2022-09-17T04:57:23.496Z,18.48
2022-09-17T04:59:50.424Z,18.73
2022-09-17T05:02:18.104Z,18.16
2022-09-17T05:04:45.030Z,18.52
2022-09-17T05:07:13.953Z,18.81
2022-09-17T05:09:45.236Z,19.09
2022-09-17T05:12:12.136Z,18.73
2022-09-17T05:14:39.084Z,18.70
2022-09-17T05:17:06.035Z,18.47
2022-09-17T05:19:32.921Z,18.05
2022-09-17T05:21:59.970Z,18.46
2022-09-17T05:24:27.319Z,18.57
2022-09-17T05:26:54.219Z,18.22
2022-09-17T05:29:22.447Z,18.16
2022-09-17T05:31:49.408Z,18.30
2022-09-17T05:34:16.376Z,18.43
2022-09-17T05:36:43.263Z,18.45
2022-09-17T05:39:10.124Z,18.45
2022-09-17T05:41:37.039Z,18.68
2022-09-17T05:44:04.108Z,18.46
2022-09-17T05:46:31.360Z,17.94
2022-09-17T05:48:58.718Z,18.18
2022-09-17T05:51:25.694Z,18.44
2022-09-17T05:53:55.426Z,18.27
2022-09-17T05:56:23.941Z,18.79
2022-09-17T05:58:51.165Z,18.09
2022-09-17T06:01:18.325Z,17.27
2022-09-17T06:03:45.262Z,18.08
2022-09-17T06:06:12.154Z,17.63
2022-09-17T06:08:39.083Z,16.97
2022-09-17T06:11:07.521Z,17.89
2022-09-17T06:13:35.609Z,17.75
2022-09-17T06:16:03.743Z,16.26
2022-09-17T06:18:31.841Z,16.46
2022-09-17T06:21:02.140Z,17.92
2022-09-17T06:23:35.118Z,18.27
2022-09-17T06:26:03.272Z,18.17
2022-09-17T06:28:30.260Z,17.68
2022-09-17T06:31:02.695Z,17.58
2022-09-17T06:33:31.652Z,17.76
2022-09-17T06:36:08.522Z,17.22
2022-09-17T06:38:38.131Z,17.44
2022-09-17T06:41:05.332Z,17.42
2022-09-17T06:43:32.239Z,17.40
2022-09-17T06:46:02.176Z,17.89
2022-09-17T06:48:30.882Z,18.12
2022-09-17T06:51:05.584Z,18.11
2022-09-17T06:53:33.031Z,17.73
2022-09-17T06:56:05.912Z,17.94
2022-09-17T06:58:34.353Z,16.92
2022-09-17T07:01:02.368Z,16.60
2022-09-17T07:03:30.890Z,17.94
2022-09-17T07:05:58.478Z,17.85
2022-09-17T07:08:26.179Z,17.76
2022-09-17T07:10:57.224Z,17.77
2022-09-17T07:13:25.779Z,18.17
2022-09-17T07:15:58.132Z,18.71
2022-09-17T07:18:26.124Z,18.15
2022-09-17T07:20:58.503Z,18.03
2022-09-17T07:23:29.362Z,17.83
2022-09-17T07:25:59.495Z,17.59
2022-09-17T07:28:27.478Z,17.69
2022-09-17T07:30:55.666Z,17.19
2022-09-17T07:33:25.644Z,17.92
2022-09-17T07:36:00.930Z,17.79
2022-09-17T07:38:29.673Z,18.08
2022-09-17T07:41:07.629Z,17.87
2022-09-17T07:43:35.837Z,17.50
2022-09-17T07:46:05.600Z,17.98
2022-09-17T07:48:33.425Z,18.11
2022-09-17T07:51:00.566Z,17.27
2022-09-17T07:53:28.064Z,17.60
2022-09-17T07:55:57.668Z,17.46
2022-09-17T07:58:31.146Z,17.30
2022-09-17T08:01:08.268Z,16.79
2022-09-17T08:03:36.537Z,17.38
2022-09-17T08:06:09.593Z,17.75
2022-09-17T08:08:38.589Z,17.94
2022-09-17T08:11:38.135Z,17.66
2022-09-17T08:14:10.359Z,17.61
2022-09-17T08:16:37.379Z,17.99
2022-09-17T08:19:04.507Z,18.14
2022-09-17T08:21:31.662Z,17.81
2022-09-17T08:23:58.880Z,17.98
2022-09-17T08:26:26.753Z,18.24
2022-09-17T08:28:56.369Z,17.49
2022-09-17T08:31:26.627Z,17.57
2022-09-17T08:33:54.036Z,17.50
2022-09-17T08:36:22.905Z,16.59
2022-09-17T08:38:54.073Z,17.67
2022-09-17T08:41:45.983Z,17.43
2022-09-17T08:44:23.459Z,18.06
2022-09-17T08:47:01.308Z,18.15
2022-09-17T08:49:36.573Z,18.33
2022-09-17T08:52:54.192Z,18.38
2022-09-17T08:55:46.407Z,17.95
2022-09-17T08:58:52.751Z,16.43
2022-09-17T09:01:44.814Z,17.85
2022-09-17T09:04:39.100Z,18.28
2022-09-17T09:07:17.318Z,18.15
2022-09-17T09:10:04.344Z,18.45
2022-09-17T09:12:35.083Z,18.24
2022-09-17T09:15:15.747Z,18.72
2022-09-17T09:17:46.697Z,18.35
2022-09-17T09:20:32.571Z,18.04
2022-09-17T09:23:13.895Z,18.35
2022-09-17T09:26:00.242Z,18.83
2022-09-17T09:28:53.574Z,18.65
2022-09-17T09:31:56.230Z,18.83
2022-09-17T09:34:23.919Z,18.89
2022-09-17T09:36:52.423Z,18.96
2022-09-17T09:39:26.128Z,18.58
2022-09-17T09:42:05.827Z,18.77
2022-09-17T09:44:32.858Z,18.66
2022-09-17T09:47:39.120Z,18.81
2022-09-17T09:50:48.703Z,18.43
2022-09-17T09:53:46.092Z,18.91
2022-09-17T09:56:34.110Z,19.05
2022-09-17T09:59:01.485Z,18.29
2022-09-17T10:01:41.765Z,18.16
2022-09-17T10:04:29.287Z,18.03
2022-09-17T10:07:07.200Z,18.72
2022-09-17T10:09:38.435Z,18.65
2022-09-17T10:12:11.425Z,18.39
2022-09-17T10:14:46.703Z,18.64
2022-09-17T10:17:26.910Z,18.97
2022-09-17T10:19:59.867Z,19.11
2022-09-17T10:22:47.055Z,19.19
2022-09-17T10:25:34.936Z,18.67
2022-09-17T10:28:06.144Z,18.98
2022-09-17T10:30:33.231Z,18.84
2022-09-17T10:33:40.979Z,18.96
2022-09-17T10:36:14.717Z,19.10
2022-09-17T10:38:46.157Z,18.79
2022-09-17T10:41:14.587Z,18.41
2022-09-17T10:43:42.264Z,18.51
2022-09-17T10:46:17.174Z,19.19
2022-09-17T10:49:11.347Z,19.33
2022-09-17T10:51:39.365Z,19.18
2022-09-17T10:54:23.506Z,18.82
2022-09-17T10:56:57.318Z,19.48
2022-09-17T10:59:53.497Z,19.37
2022-09-17T11:03:24.318Z,19.23
2022-09-17T11:06:15.384Z,19.20
2022-09-17T11:09:10.068Z,19.39
2022-09-17T11:12:04.160Z,19.07
2022-09-17T11:14:51.177Z,19.10
2022-09-17T11:17:55.170Z,19.24
2022-09-17T11:20:53.467Z,19.33
2022-09-17T11:23:52.585Z,18.93
2022-09-17T11:26:55.840Z,18.41
2022-09-17T11:29:51.877Z,18.01
2022-09-17T11:32:49.780Z,18.71
2022-09-17T11:35:24.173Z,18.57
2022-09-17T11:38:20.839Z,19.32
2022-09-17T11:41:08.108Z,19.73
2022-09-17T11:43:38.819Z,18.90
2022-09-17T11:46:23.725Z,27.01
2022-09-17T11:49:13.672Z,26.51
2022-09-17T11:52:11.210Z,25.71
2022-09-17T11:54:55.243Z,25.02
2022-09-17T11:57:35.398Z,25.38
2022-09-17T12:00:18.565Z,25.02
2022-09-17T12:03:10.879Z,27.17
2022-09-17T12:05:48.806Z,28.63
2022-09-17T12:08:22.903Z,27.88
2022-09-17T12:11:10.233Z,26.35
2022-09-17T12:13:51.499Z,26.58
2022-09-17T12:16:37.078Z,26.61
2022-09-17T12:19:37.684Z,25.73
2022-09-17T12:22:21.393Z,25.07
2022-09-17T12:24:52.237Z,24.77
2022-09-17T12:27:51.383Z,26.40
2022-09-17T12:30:23.357Z,27.84
2022-09-17T12:33:07.931Z,29.52
2022-09-17T12:36:33.079Z,27.60
2022-09-17T12:39:05.903Z,25.05
2022-09-17T12:42:13.077Z,22.48
2022-09-17T12:44:50.608Z,22.78
2022-09-17T12:48:00.906Z,21.87
2022-09-17T12:51:04.265Z,20.67
2022-09-17T12:53:43.917Z,21.04
2022-09-17T12:56:37.758Z,22.26
2022-09-17T12:59:19.289Z,24.48
2022-09-17T13:02:16.402Z,24.79
2022-09-17T13:05:17.221Z,24.37
2022-09-17T13:08:08.030Z,23.38
2022-09-17T13:10:42.035Z,22.73
2022-09-17T13:13:25.304Z,22.37
2022-09-17T13:16:00.970Z,24.79
2022-09-17T13:18:41.729Z,26.53
2022-09-17T13:21:24.754Z,23.50
2022-09-17T13:23:55.164Z,23.31
2022-09-17T13:26:35.611Z,22.88
2022-09-17T13:29:04.414Z,20.96
2022-09-17T13:31:34.565Z,23.66
2022-09-17T13:34:06.531Z,23.73
2022-09-17T13:36:47.016Z,24.20
2022-09-17T13:39:40.451Z,23.34
2022-09-17T13:42:28.914Z,25.10
2022-09-17T13:45:13.305Z,22.28
2022-09-17T13:48:05.815Z,22.97
2022-09-17T13:50:37.693Z,23.52
2022-09-17T13:53:16.738Z,24.39
2022-09-17T13:55:54.691Z,24.22
2022-09-17T13:58:21.718Z,21.58
2022-09-17T14:01:12.057Z,22.97
2022-09-17T14:03:44.430Z,22.90
2022-09-17T14:06:11.430Z,22.26
2022-09-17T14:08:44.544Z,21.88
2022-09-17T14:11:23.809Z,22.80
2022-09-17T14:13:58.398Z,21.65
2022-09-17T14:16:36.840Z,23.13
2022-09-17T14:19:16.044Z,21.60
2022-09-17T14:22:06.061Z,22.39
2022-09-17T14:24:52.327Z,23.34
2022-09-17T14:27:43.685Z,23.05
2022-09-17T14:30:24.103Z,22.74
2022-09-17T14:33:19.500Z,22.41
2022-09-17T14:35:52.717Z,23.11
2022-09-17T14:38:45.869Z,23.64
2022-09-17T14:41:12.982Z,21.55
2022-09-17T14:44:01.445Z,22.44
2022-09-17T14:46:41.263Z,22.12
2022-09-17T14:49:24.565Z,22.49
2022-09-17T14:51:53.739Z,22.45
2022-09-17T14:54:26.022Z,22.99
2022-09-17T14:56:57.543Z,22.90
2022-09-17T14:59:42.020Z,23.12
2022-09-17T15:02:43.765Z,22.96
2022-09-17T15:05:34.070Z,23.28
2022-09-17T15:08:10.135Z,23.53
2022-09-17T15:10:49.072Z,23.00
2022-09-17T15:13:21.928Z,22.39
2022-09-17T15:16:18.011Z,21.94
2022-09-17T15:19:00.097Z,22.54
2022-09-17T15:21:50.213Z,23.34
2022-09-17T15:24:50.385Z,22.70
2022-09-17T15:27:31.837Z,22.98
2022-09-17T15:30:16.252Z,22.16
2022-09-17T15:32:56.605Z,22.85
2022-09-17T15:35:31.577Z,21.52
2022-09-17T15:38:24.097Z,20.88
2022-09-17T15:40:52.024Z,22.52
2022-09-17T15:43:33.972Z,21.86
2022-09-17T15:46:26.660Z,22.12
2022-09-17T15:49:02.468Z,21.82
2022-09-17T15:51:35.956Z,21.20
2022-09-17T15:54:05.628Z,21.90
2022-09-17T15:56:39.373Z,21.66
2022-09-17T15:59:31.333Z,21.52
2022-09-17T16:02:01.579Z,22.39
2022-09-17T16:04:31.698Z,21.77
2022-09-17T16:07:07.856Z,21.87
2022-09-17T16:09:53.898Z,21.81
2022-09-17T16:12:25.299Z,20.80
2022-09-17T16:14:57.794Z,22.62
2022-09-17T16:17:46.675Z,21.62
2022-09-17T16:20:17.789Z,21.58
2022-09-17T16:22:47.856Z,20.57
2022-09-17T16:25:14.984Z,21.06
2022-09-17T16:28:15.467Z,21.92
2022-09-17T16:30:47.650Z,22.26
2022-09-17T16:33:16.826Z,21.59
2022-09-17T16:35:44.241Z,21.32
2022-09-17T16:38:12.831Z,21.16
2022-09-17T16:40:42.727Z,21.58
2022-09-17T16:43:09.959Z,21.10
2022-09-17T16:45:37.206Z,21.43
2022-09-17T16:48:06.031Z,21.55
2022-09-17T16:50:34.331Z,19.58
2022-09-17T16:53:04.860Z,19.30
2022-09-17T16:55:32.407Z,20.69
2022-09-17T16:57:59.385Z,20.55
2022-09-17T17:00:27.273Z,20.62
2022-09-17T17:02:56.891Z,21.29
2022-09-17T17:05:26.057Z,21.22
2022-09-17T17:07:55.241Z,21.07
2022-09-17T17:10:28.536Z,21.39
2022-09-17T17:12:56.427Z,20.94
2022-09-17T17:15:23.800Z,21.29
2022-09-17T17:17:51.288Z,21.32
2022-09-17T17:20:19.221Z,20.18
2022-09-17T17:22:46.201Z,20.83
2022-09-17T17:25:14.684Z,20.69
2022-09-17T17:27:42.452Z,20.83
2022-09-17T17:30:16.554Z,20.59
2022-09-17T17:32:44.970Z,19.62
2022-09-17T17:35:12.157Z,19.90
2022-09-17T17:37:39.323Z,19.06
2022-09-17T17:40:10.062Z,19.15
2022-09-17T17:42:39.483Z,19.89
2022-09-17T17:45:08.354Z,19.07
2022-09-17T17:47:38.659Z,18.59
2022-09-17T17:50:06.302Z,18.42
2022-09-17T17:52:33.251Z,17.79
2022-09-17T17:55:00.253Z,17.88
2022-09-17T17:57:27.202Z,18.66
2022-09-17T17:59:54.117Z,19.10
2022-09-17T18:02:21.291Z,19.58
2022-09-17T18:04:49.023Z,19.71
2022-09-17T18:07:16.090Z,19.94
2022-09-17T18:09:43.126Z,20.27
2022-09-17T18:12:10.110Z,20.19
2022-09-17T18:14:37.108Z,18.85
2022-09-17T18:17:04.047Z,19.78
2022-09-17T18:19:30.982Z,19.36
2022-09-17T18:21:57.911Z,18.89
2022-09-17T18:24:24.906Z,19.21
2022-09-17T18:26:51.870Z,18.25
2022-09-17T18:29:19.412Z,18.75
2022-09-17T18:31:46.497Z,19.95
2022-09-17T18:34:16.135Z,20.45
2022-09-17T18:36:50.758Z,19.56
2022-09-17T18:39:57.497Z,19.48
2022-09-17T18:42:05.497Z,19.66
2022-09-17T18:44:32.672Z,19.27
2022-09-17T18:46:59.686Z,19.20
2022-09-17T18:49:26.662Z,19.09
2022-09-17T18:51:53.543Z,18.96
2022-09-17T18:54:20.484Z,18.30
2022-09-17T18:56:47.410Z,19.26
2022-09-17T18:59:14.335Z,19.59
2022-09-17T19:01:43.141Z,19.37
2022-09-17T19:04:11.174Z,20.20
2022-09-17T19:06:38.151Z,19.78
2022-09-17T19:09:06.241Z,20.14
2022-09-17T19:11:36.166Z,19.84
2022-09-17T19:14:03.195Z,18.65
2022-09-17T19:16:30.571Z,18.56
2022-09-17T19:18:57.696Z,18.60
2022-09-17T19:21:24.608Z,18.44
2022-09-17T19:23:52.784Z,18.83
2022-09-17T19:26:22.119Z,18.86
2022-09-17T19:28:52.680Z,19.03
2022-09-17T19:31:19.820Z,19.28
2022-09-17T19:33:47.571Z,19.21
2022-09-17T19:36:16.970Z,19.03
2022-09-17T19:38:44.730Z,19.86
2022-09-17T19:41:15.345Z,18.09
2022-09-17T19:43:42.953Z,18.91
2022-09-17T19:46:17.720Z,19.92
2022-09-17T19:48:50.570Z,19.22
2022-09-17T19:51:18.633Z,19.20
2022-09-17T19:53:45.992Z,19.77
2022-09-17T19:56:16.494Z,19.79
2022-09-17T19:58:43.810Z,19.04
2022-09-17T20:01:11.518Z,18.29
2022-09-17T20:03:42.816Z,18.31
2022-09-17T20:06:16.921Z,18.84
2022-09-17T20:08:46.972Z,18.52
2022-09-17T20:11:15.014Z,18.76
2022-09-17T20:13:42.014Z,19.14
2022-09-17T20:16:18.825Z,19.43
2022-09-17T20:18:46.677Z,19.30
2022-09-17T20:21:16.764Z,19.55
2022-09-17T20:23:44.021Z,19.60
2022-09-17T20:26:12.519Z,19.31
2022-09-17T20:28:43.514Z,19.79
2022-09-17T20:31:14.406Z,19.90
2022-09-17T20:33:42.144Z,19.68
2022-09-17T20:36:14.653Z,20.40
2022-09-17T20:39:22.052Z,20.41
2022-09-17T20:41:31.215Z,20.25
2022-09-17T20:43:58.641Z,20.15
2022-09-17T20:46:29.389Z,20.01
2022-09-17T20:48:58.178Z,18.97
2022-09-17T20:51:29.287Z,19.72
2022-09-17T20:54:01.460Z,19.61
2022-09-17T20:56:31.669Z,18.95
2022-09-17T20:59:12.923Z,19.02
2022-09-17T21:01:44.530Z,18.62
2022-09-17T21:04:17.325Z,19.16
2022-09-17T21:06:45.811Z,19.73
2022-09-17T21:09:17.346Z,19.88
2022-09-17T21:11:46.403Z,19.57
2022-09-17T21:14:15.808Z,19.99
2022-09-17T21:16:43.341Z,19.83
2022-09-17T21:19:12.590Z,19.47
2022-09-17T21:21:40.025Z,18.53
2022-09-17T21:24:10.005Z,19.16
2022-09-17T21:26:37.524Z,18.86
2022-09-17T21:29:04.613Z,18.66
2022-09-17T21:31:34.085Z,19.45
2022-09-17T21:34:04.225Z,19.78
2022-09-17T21:36:36.611Z,18.36
2022-09-17T21:39:13.524Z,18.13
2022-09-17T21:41:42.949Z,18.53
2022-09-17T21:44:13.926Z,19.46
2022-09-17T21:46:42.413Z,19.57
2022-09-17T21:49:10.350Z,19.41
2022-09-17T21:51:40.582Z,19.76
2022-09-17T21:54:13.734Z,19.76
2022-09-17T21:56:40.884Z,19.14
2022-09-17T21:59:11.570Z,19.81
2022-09-17T22:01:46.423Z,19.93
2022-09-17T22:04:17.444Z,19.52
2022-09-17T22:06:45.511Z,19.62
2022-09-17T22:09:19.865Z,19.57
2022-09-17T22:11:47.358Z,19.21
2022-09-17T22:14:19.541Z,19.19
2022-09-17T22:16:50.949Z,18.88
2022-09-17T22:19:19.819Z,19.04
2022-09-17T22:21:51.332Z,19.31
2022-09-17T22:24:20.908Z,18.54
2022-09-17T22:26:56.445Z,19.24
2022-09-17T22:29:26.528Z,18.89
2022-09-17T22:31:53.561Z,18.81
2022-09-17T22:34:22.662Z,18.96
2022-09-17T22:36:50.338Z,18.78
2022-09-17T22:39:20.806Z,18.39
2022-09-17T22:41:48.354Z,18.55
2022-09-17T22:44:18.383Z,18.23
2022-09-17T22:46:48.482Z,17.01
2022-09-17T22:49:16.159Z,18.11
2022-09-17T22:51:44.892Z,18.17
2022-09-17T22:54:14.204Z,17.68
2022-09-17T22:56:42.311Z,18.02
2022-09-17T22:59:09.791Z,17.51
2022-09-17T23:01:37.562Z,17.30
2022-09-17T23:04:05.926Z,16.63
2022-09-17T23:06:36.480Z,18.05
2022-09-17T23:09:04.240Z,17.99
2022-09-17T23:11:38.133Z,17.99
2022-09-17T23:14:11.566Z,18.15
2022-09-17T23:16:45.533Z,18.20
2022-09-17T23:19:13.573Z,18.84
2022-09-17T23:21:41.456Z,18.32
2022-09-17T23:24:11.337Z,18.52
2022-09-17T23:26:38.271Z,18.74
2022-09-17T23:29:05.903Z,18.86
2022-09-17T23:31:35.242Z,18.78
2022-09-17T23:34:03.807Z,18.16
2022-09-17T23:36:33.395Z,18.64
2022-09-17T23:39:02.609Z,18.80
2022-09-17T23:41:32.678Z,19.32
2022-09-17T23:44:02.745Z,18.64
2022-09-17T23:46:33.187Z,19.05
2022-09-17T23:49:00.513Z,17.51
2022-09-17T23:51:30.944Z,18.31
2022-09-17T23:53:59.198Z,18.44
2022-09-17T23:56:28.208Z,18.92
2022-09-17T23:58:56.856Z,18.69
